createdAt,value
2018-11-05T00:01:04.626Z,10.20
2018-11-05T00:03:35.546Z,10.20
2018-11-05T00:06:07.497Z,10.20
2018-11-05T00:08:37.373Z,10.20
2018-11-05T00:11:08.298Z,10.20
2018-11-05T00:13:38.141Z,10.20
2018-11-05T00:16:13.898Z,10.20
2018-11-05T00:18:43.782Z,10.10
2018-11-05T00:21:13.709Z,10.10
2018-11-05T00:23:43.661Z,10.10
2018-11-05T00:26:13.934Z,10.10
2018-11-05T00:28:44.768Z,10.10
2018-11-05T00:31:24.750Z,10.10
2018-11-05T00:33:54.634Z,10.10
2018-11-05T00:36:25.477Z,10.10
2018-11-05T00:38:56.334Z,10.10
2018-11-05T00:41:27.253Z,10.10
2018-11-05T00:43:58.190Z,10.10
2018-11-05T00:46:40.000Z,10.00
2018-11-05T00:49:11.818Z,10.10
2018-11-05T00:51:42.826Z,10.10
2018-11-05T00:54:16.757Z,10.10
2018-11-05T00:56:46.685Z,10.10
2018-11-05T00:59:17.510Z,10.10
2018-11-05T01:01:48.465Z,10.10
2018-11-05T01:04:19.325Z,10.10
2018-11-05T01:06:49.261Z,10.00
2018-11-05T01:09:20.222Z,9.90
2018-11-05T01:11:50.102Z,9.90
2018-11-05T01:14:22.010Z,9.90
2018-11-05T01:16:57.810Z,9.80
2018-11-05T01:19:31.116Z,9.80
2018-11-05T01:22:01.306Z,9.80
2018-11-05T01:24:31.183Z,9.80
2018-11-05T01:27:06.834Z,9.70
2018-11-05T01:29:37.709Z,9.70
2018-11-05T01:32:07.919Z,9.70
2018-11-05T01:34:39.774Z,9.80
2018-11-05T01:37:10.692Z,9.70
2018-11-05T01:39:42.486Z,9.60
2018-11-05T01:42:14.321Z,9.50
2018-11-05T01:44:45.166Z,9.40
2018-11-05T01:47:16.006Z,9.40
2018-11-05T01:49:46.801Z,9.40
2018-11-05T01:52:16.649Z,9.30
2018-11-05T01:54:46.514Z,9.30
2018-11-05T01:57:16.413Z,9.30
2018-11-05T01:59:46.289Z,9.30
2018-11-05T02:02:16.205Z,9.30
2018-11-05T02:04:49.625Z,9.20
2018-11-05T02:07:23.717Z,9.10
2018-11-05T02:09:57.429Z,9.10
2018-11-05T02:12:27.477Z,9.00
2018-11-05T02:15:01.165Z,9.00
2018-11-05T02:17:37.637Z,9.10
2018-11-05T02:20:07.825Z,9.20
2018-11-05T02:22:38.070Z,9.20
2018-11-05T02:25:09.089Z,9.10
2018-11-05T02:27:38.981Z,9.20
2018-11-05T02:30:12.813Z,9.20
2018-11-05T02:32:42.685Z,9.20
2018-11-05T02:35:14.305Z,9.20
2018-11-05T02:37:47.116Z,9.20
2018-11-05T02:40:19.367Z,9.10
2018-11-05T02:42:50.671Z,9.20
2018-11-05T02:45:21.529Z,9.30
2018-11-05T02:47:51.413Z,9.30
2018-11-05T02:50:21.319Z,9.30
2018-11-05T02:52:51.238Z,9.40
2018-11-05T02:55:25.438Z,9.40
2018-11-05T02:57:55.290Z,9.50
2018-11-05T03:00:25.237Z,9.50
2018-11-05T03:02:58.225Z,9.40
2018-11-05T03:05:30.074Z,9.40
2018-11-05T03:07:59.917Z,9.50
2018-11-05T03:10:29.881Z,9.50
2018-11-05T03:13:01.722Z,9.50
2018-11-05T03:15:31.634Z,9.40
2018-11-05T03:18:02.562Z,9.40
2018-11-05T03:20:32.613Z,9.50
2018-11-05T03:23:03.530Z,9.40
2018-11-05T03:25:34.377Z,9.40
2018-11-05T03:28:07.952Z,9.40
2018-11-05T03:30:37.885Z,9.40
2018-11-05T03:33:08.722Z,9.40
2018-11-05T03:35:41.031Z,9.30
2018-11-05T03:38:11.962Z,9.30
2018-11-05T03:40:42.002Z,9.30
2018-11-05T03:43:11.911Z,9.30
2018-11-05T03:45:41.794Z,9.20
2018-11-05T03:48:11.698Z,9.20
2018-11-05T03:50:41.926Z,9.10
2018-11-05T03:53:11.818Z,9.10
2018-11-05T03:55:42.813Z,9.20
2018-11-05T03:58:12.654Z,9.20
2018-11-05T04:00:45.818Z,9.30
2018-11-05T04:03:15.759Z,9.20
2018-11-05T04:05:46.658Z,9.30
2018-11-05T04:08:18.538Z,9.20
2018-11-05T04:10:48.781Z,9.30
2018-11-05T04:13:18.750Z,9.30
2018-11-05T04:15:48.653Z,9.30
2018-11-05T04:18:20.502Z,9.30
2018-11-05T04:20:50.406Z,9.30
2018-11-05T04:23:20.393Z,9.30
2018-11-05T04:25:52.308Z,9.30
2018-11-05T04:28:22.218Z,9.30
2018-11-05T04:30:52.062Z,9.20
2018-11-05T04:33:31.703Z,9.20
2018-11-05T04:36:02.534Z,9.20
2018-11-05T04:38:32.398Z,9.30
2018-11-05T04:41:12.202Z,9.30
2018-11-05T04:43:43.046Z,9.20
2018-11-05T04:46:13.176Z,9.20
2018-11-05T04:48:45.071Z,9.20
2018-11-05T04:51:15.039Z,9.20
2018-11-05T04:53:44.924Z,9.20
2018-11-05T04:56:20.482Z,9.20
2018-11-05T04:58:52.618Z,9.20
2018-11-05T05:01:22.646Z,9.20
2018-11-05T05:03:53.511Z,9.20
2018-11-05T05:06:24.366Z,9.30
2018-11-05T05:08:54.281Z,9.30
2018-11-05T05:11:26.154Z,9.20
2018-11-05T05:13:56.082Z,9.20
2018-11-05T05:16:27.026Z,9.10
2018-11-05T05:18:57.926Z,9.10
2018-11-05T05:21:34.500Z,9.10
2018-11-05T05:24:24.146Z,9.10
2018-11-05T05:27:00.050Z,9.10
2018-11-05T05:29:40.518Z,9.10
2018-11-05T05:32:12.362Z,9.20
2018-11-05T05:34:43.294Z,9.20
2018-11-05T05:37:19.885Z,9.20
2018-11-05T05:39:49.813Z,9.20
2018-11-05T05:42:20.757Z,9.30
2018-11-05T05:44:50.621Z,9.30
2018-11-05T05:47:33.114Z,9.20
2018-11-05T05:50:05.181Z,9.20
2018-11-05T05:52:47.645Z,9.20
2018-11-05T05:55:20.693Z,9.20
2018-11-05T05:57:51.618Z,9.20
2018-11-05T06:00:21.763Z,9.20
2018-11-05T06:02:51.635Z,9.20
2018-11-05T06:05:22.482Z,9.20
2018-11-05T06:07:52.406Z,9.20
2018-11-05T06:10:22.330Z,9.20
2018-11-05T06:12:57.758Z,9.20
2018-11-05T06:15:27.658Z,9.20
2018-11-05T06:18:01.558Z,9.30
2018-11-05T06:20:34.442Z,9.30
2018-11-05T06:23:07.458Z,9.20
2018-11-05T06:25:38.310Z,9.20
2018-11-05T06:28:09.235Z,9.10
2018-11-05T06:30:43.967Z,9.10
2018-11-05T06:33:17.551Z,9.10
2018-11-05T06:35:52.806Z,9.00
2018-11-05T06:38:24.643Z,9.00
2018-11-05T06:40:55.542Z,9.10
2018-11-05T06:43:28.566Z,9.10
2018-11-05T06:45:58.393Z,9.20
2018-11-05T06:48:30.229Z,9.20
2018-11-05T06:51:00.698Z,9.20
2018-11-05T06:53:31.920Z,9.20
2018-11-05T06:56:03.014Z,9.30
2018-11-05T06:58:39.006Z,9.30
2018-11-05T07:01:09.014Z,9.30
2018-11-05T07:03:39.890Z,9.40
2018-11-05T07:06:11.794Z,9.40
2018-11-05T07:08:42.326Z,9.50
2018-11-05T07:11:12.274Z,9.50
2018-11-05T07:13:43.421Z,9.60
2018-11-05T07:16:16.405Z,9.60
2018-11-05T07:18:47.541Z,9.70
2018-11-05T07:21:18.490Z,9.80
2018-11-05T07:23:48.381Z,9.90
2018-11-05T07:26:25.297Z,10.00
2018-11-05T07:28:55.191Z,10.00
2018-11-05T07:31:29.417Z,10.00
2018-11-05T07:33:59.542Z,10.10
2018-11-05T07:36:29.167Z,10.10
2018-11-05T07:39:02.515Z,10.10
2018-11-05T07:41:32.554Z,10.20
2018-11-05T07:44:02.478Z,10.30
2018-11-05T07:46:36.279Z,10.40
2018-11-05T07:51:51.682Z,10.60
2018-11-05T07:54:21.454Z,10.70
2018-11-05T07:56:51.531Z,10.80
2018-11-05T07:59:22.303Z,10.90
2018-11-05T08:01:52.174Z,10.90
2018-11-05T08:04:23.178Z,11.00
2018-11-05T08:06:53.014Z,11.00
2018-11-05T08:09:24.810Z,11.10
2018-11-05T08:11:58.310Z,11.20
2018-11-05T08:14:30.216Z,11.20
2018-11-05T08:17:03.715Z,11.20
2018-11-05T08:19:39.147Z,11.30
2018-11-05T08:22:16.238Z,11.30
2018-11-05T08:24:47.158Z,11.30
2018-11-05T08:27:20.662Z,11.40
2018-11-05T08:29:51.490Z,11.50
2018-11-05T08:32:25.862Z,11.60
2018-11-05T08:35:01.660Z,11.60
2018-11-05T08:37:38.078Z,11.60
2018-11-05T08:40:14.665Z,11.70
2018-11-05T08:42:50.466Z,11.70
2018-11-05T08:45:26.978Z,11.80
2018-11-05T08:47:56.842Z,11.90
2018-11-05T08:50:26.725Z,12.00
2018-11-05T08:52:56.498Z,12.10
2018-11-05T08:55:27.822Z,12.20
2018-11-05T08:57:59.294Z,12.20
2018-11-05T09:00:52.376Z,12.30
2018-11-05T09:03:26.954Z,12.40
2018-11-05T09:06:03.694Z,12.50
2018-11-05T09:08:33.583Z,12.50
2018-11-05T09:11:03.890Z,12.60
2018-11-05T09:13:38.723Z,12.50
2018-11-05T09:16:10.732Z,12.50
2018-11-05T09:18:41.462Z,12.50
2018-11-05T09:21:12.293Z,12.50
2018-11-05T09:23:43.079Z,12.50
2018-11-05T09:26:21.363Z,12.50
2018-11-05T09:28:52.163Z,12.50
2018-11-05T09:31:27.613Z,12.50
2018-11-05T09:34:00.803Z,12.60
2018-11-05T09:36:32.518Z,12.60
2018-11-05T09:39:08.119Z,12.60
2018-11-05T09:41:41.618Z,12.60
2018-11-05T09:44:20.918Z,12.60
2018-11-05T09:46:50.730Z,12.70
2018-11-05T09:49:23.942Z,12.70
2018-11-05T09:51:53.740Z,12.60
2018-11-05T09:54:26.687Z,12.60
2018-11-05T09:56:56.511Z,12.70
2018-11-05T09:59:32.507Z,12.70
2018-11-05T10:02:18.938Z,12.70
2018-11-05T10:04:50.225Z,12.80
2018-11-05T10:07:19.986Z,12.80
2018-11-05T10:09:53.186Z,12.90
2018-11-05T10:12:23.154Z,13.00
2018-11-05T10:14:52.950Z,13.10
2018-11-05T10:17:22.767Z,13.10
2018-11-05T10:19:52.534Z,13.10
2018-11-05T10:22:23.739Z,13.10
2018-11-05T10:24:54.190Z,13.10
2018-11-05T10:27:34.146Z,13.10
2018-11-05T10:30:04.111Z,13.10
2018-11-05T10:32:39.926Z,13.10
2018-11-05T10:35:12.351Z,13.20
2018-11-05T10:37:42.170Z,13.20
2018-11-05T10:40:16.371Z,13.20
2018-11-05T10:42:47.089Z,13.20
2018-11-05T10:45:18.022Z,13.20
2018-11-05T10:47:51.770Z,13.20
2018-11-05T10:50:29.321Z,13.20
2018-11-05T10:53:02.406Z,13.20
2018-11-05T10:55:35.572Z,13.20
2018-11-05T10:58:05.443Z,13.20
2018-11-05T11:00:43.418Z,13.30
2018-11-05T11:03:34.526Z,13.30
2018-11-05T11:06:07.987Z,13.40
2018-11-05T11:08:38.755Z,13.50
2018-11-05T11:11:10.667Z,13.60
2018-11-05T11:13:40.602Z,13.60
2018-11-05T11:16:11.518Z,13.70
2018-11-05T11:18:48.450Z,13.70
2018-11-05T11:21:19.330Z,13.70
2018-11-05T11:23:52.835Z,13.80
2018-11-05T11:26:22.762Z,13.90
2018-11-05T11:28:52.706Z,13.90
2018-11-05T11:31:22.386Z,13.90
2018-11-05T11:33:54.222Z,13.90
2018-11-05T11:36:28.408Z,14.00
2018-11-05T11:38:58.146Z,14.00
2018-11-05T11:41:28.051Z,14.00
2018-11-05T11:43:58.827Z,14.00
2018-11-05T11:46:37.496Z,14.10
2018-11-05T11:49:12.643Z,14.10
2018-11-05T11:51:43.486Z,14.00
2018-11-05T11:54:13.291Z,14.10
2018-11-05T11:56:45.050Z,14.10
2018-11-05T11:59:27.059Z,14.20
2018-11-05T12:02:04.353Z,14.50
2018-11-05T12:04:34.242Z,15.50
2018-11-05T12:07:04.083Z,17.20
2018-11-05T12:09:36.181Z,19.00
2018-11-05T12:15:12.446Z,18.80
2018-11-05T12:17:47.606Z,17.50
2018-11-05T12:20:21.095Z,16.70
2018-11-05T12:22:53.395Z,17.70
2018-11-05T12:25:24.090Z,19.20
2018-11-05T12:27:55.042Z,20.30
2018-11-05T12:30:26.834Z,20.70
2018-11-05T12:32:57.642Z,20.40
2018-11-05T12:35:28.471Z,20.20
2018-11-05T12:37:58.302Z,20.30
2018-11-05T12:40:29.159Z,20.20
2018-11-05T12:43:02.582Z,20.30
2018-11-05T12:45:32.523Z,20.40
2018-11-05T12:48:05.754Z,20.70
2018-11-05T12:50:37.227Z,20.80
2018-11-05T12:53:08.598Z,21.00
2018-11-05T12:55:43.358Z,21.50
2018-11-05T12:58:18.934Z,21.80
2018-11-05T13:00:52.457Z,22.20
2018-11-05T13:03:23.230Z,22.00
2018-11-05T13:05:54.114Z,22.10
2018-11-05T13:08:24.050Z,22.50
2018-11-05T13:10:54.848Z,22.40
2018-11-05T13:13:24.630Z,22.40
2018-11-05T13:15:54.479Z,22.10
2018-11-05T13:18:24.452Z,21.90
2018-11-05T13:20:54.290Z,22.40
2018-11-05T13:23:31.386Z,23.10
2018-11-05T13:26:02.444Z,23.80
2018-11-05T13:28:33.333Z,23.90
2018-11-05T13:31:04.087Z,24.10
2018-11-05T13:33:35.995Z,23.40
2018-11-05T13:36:06.119Z,23.40
2018-11-05T13:38:38.501Z,22.70
2018-11-05T13:41:09.195Z,22.90
2018-11-05T13:43:39.118Z,23.00
2018-11-05T13:46:11.306Z,22.90
2018-11-05T13:48:43.512Z,22.80
2018-11-05T13:51:12.846Z,22.60
2018-11-05T13:53:43.626Z,22.80
2018-11-05T13:56:13.662Z,22.70
2018-11-05T13:58:43.519Z,22.40
2018-11-05T14:01:13.397Z,22.20
2018-11-05T14:03:45.130Z,21.90
2018-11-05T14:06:18.082Z,21.40
2018-11-05T14:08:52.170Z,21.40
2018-11-05T14:11:21.956Z,21.40
2018-11-05T14:13:52.751Z,21.80
2018-11-05T14:16:22.971Z,22.10
2018-11-05T14:18:54.751Z,21.50
2018-11-05T14:21:37.626Z,20.80
2018-11-05T14:24:11.606Z,20.50
2018-11-05T14:26:48.178Z,20.40
2018-11-05T14:29:18.396Z,20.10
2018-11-05T14:31:53.839Z,20.10
2018-11-05T14:34:24.737Z,20.20
2018-11-05T14:37:00.862Z,19.80
2018-11-05T14:39:31.574Z,19.50
2018-11-05T14:42:01.379Z,19.60
2018-11-05T14:44:31.178Z,19.60
2018-11-05T14:47:10.334Z,19.50
2018-11-05T14:49:40.183Z,19.70
2018-11-05T14:52:11.087Z,19.80
2018-11-05T14:54:41.010Z,19.90
2018-11-05T14:57:20.764Z,19.90
2018-11-05T14:59:51.479Z,20.00
2018-11-05T15:02:26.794Z,19.50
2018-11-05T15:05:02.284Z,19.00
2018-11-05T15:07:46.605Z,18.60
2018-11-05T15:10:21.695Z,18.10
2018-11-05T15:12:53.543Z,17.80
2018-11-05T15:15:24.462Z,17.40
2018-11-05T15:17:54.235Z,17.10
2018-11-05T15:20:25.151Z,16.80
2018-11-05T15:22:54.883Z,16.60
2018-11-05T15:25:32.788Z,16.40
2018-11-05T15:28:03.591Z,16.00
2018-11-05T15:30:33.431Z,15.30
2018-11-05T15:33:03.310Z,14.90
2018-11-05T15:35:40.546Z,14.50
2018-11-05T15:38:13.661Z,14.30
2018-11-05T15:40:44.511Z,14.10
2018-11-05T15:43:17.875Z,13.90
2018-11-05T15:45:48.663Z,13.70
2018-11-05T15:48:18.439Z,13.50
2018-11-05T15:50:48.383Z,13.30
2018-11-05T15:53:18.644Z,13.30
2018-11-05T15:55:48.987Z,13.20
2018-11-05T15:58:18.784Z,13.10
2018-11-05T16:00:48.743Z,13.30
2018-11-05T16:03:20.495Z,13.30
2018-11-05T16:05:51.311Z,13.40
2018-11-05T16:08:21.226Z,13.30
2018-11-05T16:10:52.167Z,13.20
2018-11-05T16:13:22.099Z,13.20
2018-11-05T16:16:15.711Z,13.00
2018-11-05T16:18:47.552Z,12.90
2018-11-05T16:21:29.804Z,12.80
2018-11-05T16:24:00.635Z,12.70
2018-11-05T16:26:30.588Z,12.60
2018-11-05T16:29:01.352Z,12.50
2018-11-05T16:31:32.267Z,12.40
2018-11-05T16:34:06.475Z,12.30
2018-11-05T16:36:41.243Z,12.20
2018-11-05T16:39:13.291Z,12.20
2018-11-05T16:41:43.551Z,12.00
2018-11-05T16:44:13.367Z,11.90
2018-11-05T16:46:45.235Z,11.90
2018-11-05T16:49:15.116Z,12.00
2018-11-05T16:51:48.307Z,12.00
2018-11-05T16:54:20.044Z,12.00
2018-11-05T16:56:53.487Z,12.00
2018-11-05T16:59:24.531Z,11.90
2018-11-05T17:01:54.928Z,11.80
2018-11-05T17:04:25.391Z,11.80
2018-11-05T17:06:55.174Z,11.70
2018-11-05T17:09:25.926Z,11.60
2018-11-05T17:11:55.887Z,11.60
2018-11-05T17:14:25.739Z,11.60
2018-11-05T17:16:55.659Z,11.70
2018-11-05T17:19:31.411Z,11.80
2018-11-05T17:22:02.280Z,11.90
2018-11-05T17:24:33.179Z,12.10
2018-11-05T17:27:06.215Z,12.20
2018-11-05T17:29:36.098Z,12.20
2018-11-05T17:32:08.059Z,12.10
2018-11-05T17:34:41.715Z,12.10
2018-11-05T17:37:12.619Z,12.10
2018-11-05T17:39:42.647Z,12.10
2018-11-05T17:42:14.611Z,12.10
2018-11-05T17:44:44.715Z,12.20
2018-11-05T17:47:19.123Z,12.20
2018-11-05T17:49:50.067Z,12.10
2018-11-05T17:52:19.939Z,12.00
2018-11-05T17:54:50.270Z,11.90
2018-11-05T17:57:21.063Z,11.90
2018-11-05T17:59:54.183Z,11.90
2018-11-05T18:02:25.861Z,11.90
2018-11-05T18:04:56.487Z,11.90
2018-11-05T18:07:26.872Z,11.90
2018-11-05T18:09:58.610Z,11.90
2018-11-05T18:12:28.507Z,11.90
2018-11-05T18:14:58.427Z,11.90
2018-11-05T18:17:29.431Z,11.90
2018-11-05T18:19:59.327Z,11.80
2018-11-05T18:22:30.335Z,11.70
2018-11-05T18:25:04.563Z,11.60
2018-11-05T18:27:39.259Z,11.70
2018-11-05T18:30:19.572Z,11.70
2018-11-05T18:32:55.221Z,11.70
2018-11-05T18:35:32.047Z,11.70
2018-11-05T18:38:02.496Z,11.70
2018-11-05T18:40:32.259Z,11.70
2018-11-05T18:43:04.218Z,11.60
2018-11-05T18:45:35.115Z,11.50
2018-11-05T18:48:05.099Z,11.50
2018-11-05T18:50:35.891Z,11.50
2018-11-05T18:53:06.126Z,11.60
2018-11-05T18:55:39.698Z,11.60
2018-11-05T18:58:10.743Z,11.60
2018-11-05T19:00:46.176Z,11.60
2018-11-05T19:03:17.016Z,11.60
2018-11-05T19:05:47.869Z,11.70
2018-11-05T19:08:19.766Z,11.70
2018-11-05T19:10:49.662Z,11.70
2018-11-05T19:13:19.558Z,11.70
2018-11-05T19:15:50.416Z,11.70
2018-11-05T19:18:20.167Z,11.70
2018-11-05T19:20:52.063Z,11.60
2018-11-05T19:23:22.181Z,11.70
2018-11-05T19:25:53.099Z,11.60
2018-11-05T19:28:23.951Z,11.60
2018-11-05T19:31:03.232Z,11.50
2018-11-05T19:33:39.313Z,11.40
2018-11-05T19:36:14.082Z,11.30
2018-11-05T19:38:43.871Z,11.20
2018-11-05T19:41:13.891Z,11.20
2018-11-05T19:43:44.663Z,11.20
2018-11-05T19:46:21.694Z,11.20
2018-11-05T19:48:55.755Z,11.30
2018-11-05T19:51:29.643Z,11.30
2018-11-05T19:54:00.503Z,11.30
2018-11-05T19:56:31.482Z,11.30
2018-11-05T19:59:06.463Z,11.30
2018-11-05T20:01:36.334Z,11.40
2018-11-05T20:04:10.618Z,11.40
2018-11-05T20:06:42.383Z,11.40
2018-11-05T20:09:12.211Z,11.40
2018-11-05T20:11:42.991Z,11.30
2018-11-05T20:14:13.792Z,11.30
2018-11-05T20:16:44.673Z,11.30
2018-11-05T20:19:18.028Z,11.20
2018-11-05T20:21:51.435Z,11.20
2018-11-05T20:24:21.251Z,11.20
2018-11-05T20:26:51.263Z,11.10
2018-11-05T20:29:33.292Z,11.10
2018-11-05T20:32:04.457Z,11.10
2018-11-05T20:34:39.734Z,11.00
2018-11-05T20:37:09.328Z,10.90
2018-11-05T20:39:40.840Z,10.60
2018-11-05T20:42:10.702Z,10.20
2018-11-05T20:44:48.104Z,10.00
2018-11-05T20:47:20.167Z,9.70
2018-11-05T20:49:55.307Z,9.40
2018-11-05T20:52:26.135Z,9.30
2018-11-05T20:54:56.975Z,9.20
2018-11-05T20:57:26.863Z,9.00
2018-11-05T20:59:56.687Z,8.90
2018-11-05T21:02:36.283Z,8.80
2018-11-05T21:05:07.385Z,8.80
2018-11-05T21:07:38.559Z,8.70
2018-11-05T21:10:34.116Z,8.70
2018-11-05T21:13:05.404Z,8.60
2018-11-05T21:15:55.184Z,8.60
2018-11-05T21:18:30.464Z,8.70
2018-11-05T21:21:01.415Z,8.70
2018-11-05T21:23:31.130Z,8.70
2018-11-05T21:26:04.860Z,8.60
2018-11-05T21:28:35.647Z,8.50
2018-11-05T21:31:11.664Z,8.50
2018-11-05T21:33:41.536Z,8.60
2018-11-05T21:36:12.371Z,8.60
2018-11-05T21:38:42.175Z,8.60
2018-11-05T21:41:14.656Z,8.70
2018-11-05T21:43:55.131Z,8.70
2018-11-05T21:46:31.147Z,8.70
2018-11-05T21:49:07.244Z,8.70
2018-11-05T21:51:37.170Z,8.60
2018-11-05T21:54:10.655Z,8.40
2018-11-05T21:56:56.436Z,8.20
2018-11-05T21:59:26.208Z,8.40
2018-11-05T22:01:58.196Z,8.40
2018-11-05T22:04:30.015Z,8.30
2018-11-05T22:07:03.723Z,8.40
2018-11-05T22:09:36.910Z,8.80
2018-11-05T22:12:06.902Z,9.10
2018-11-05T22:14:36.826Z,9.30
2018-11-05T22:17:08.804Z,9.40
2018-11-05T22:19:41.700Z,9.40
2018-11-05T22:22:16.763Z,9.50
2018-11-05T22:24:46.528Z,9.60
2018-11-05T22:27:20.866Z,9.60
2018-11-05T22:29:51.655Z,9.60
2018-11-05T22:35:24.464Z,9.30
2018-11-05T22:37:54.460Z,9.10
2018-11-05T22:40:26.202Z,8.90
2018-11-05T22:42:56.976Z,8.90
2018-11-05T22:45:29.895Z,9.00
2018-11-05T22:48:00.752Z,9.20
2018-11-05T22:50:32.727Z,9.20
2018-11-05T22:53:06.291Z,9.30
2018-11-05T22:55:37.167Z,9.40
2018-11-05T22:58:13.956Z,9.50
2018-11-05T23:00:55.024Z,9.60
2018-11-05T23:03:34.722Z,9.60
2018-11-05T23:06:04.615Z,9.80
2018-11-05T23:08:34.503Z,10.00
2018-11-05T23:11:05.019Z,10.10
2018-11-05T23:13:34.962Z,10.10
2018-11-05T23:16:08.043Z,10.20
2018-11-05T23:18:39.895Z,10.30
2018-11-05T23:21:14.790Z,10.30
2018-11-05T23:23:44.579Z,10.20
2018-11-05T23:26:15.431Z,10.30
2018-11-05T23:28:45.239Z,10.30
2018-11-05T23:31:15.073Z,10.30
2018-11-05T23:33:46.959Z,10.30
2018-11-05T23:36:16.857Z,10.30
2018-11-05T23:38:46.719Z,10.30
2018-11-05T23:41:17.167Z,10.30
2018-11-05T23:43:47.095Z,10.30
2018-11-05T23:46:21.203Z,10.30
2018-11-05T23:48:53.391Z,10.30
2018-11-05T23:51:23.349Z,10.30
2018-11-05T23:53:54.143Z,10.30
2018-11-05T23:56:30.851Z,10.30
2018-11-05T23:59:01.724Z,10.20
